Terminal Aerodrome Forecast
Issued by NWS

Home | Current Version | Previous Version | Text Only | Print | Product List | Glossary Off
Versions: 1 2 3 4 5 6 7 8 9 10 11 12 13 14 15 16 17 18 19 20 21 22 23 24 25 26 27 28 29 30 31 32 33 34 35 36 37 38 39

000
FTUS43 KGRB 201300 AAA
TAFRHI
TAF AMD
KRHI 201331Z 2014/2112 31010G18KT 2SM -SN BR SCT007 OVC012
      TEMPO 2014/2017 3/4SM -SN BR BKN007
     FM202000 28012KT P6SM SCT020 OVC035
     FM210100 27008KT P6SM OVC035
     FM210400 27010KT P6SM -RASN SCT010 OVC018=

USA.gov is the U.S. government's official web portal to all federal, state and local government web resources and services.